Time;durP1;ratioP1;P1;durP2;ratioP2;P2;SDS_P1;SDS_P2;PMS_P1;PMS_P2;Temp;Humidity;BMP_temperature;BMP_pressure;BME280_temperature;BME280_humidity;BME280_pressure;Samples;Min_cycle;Max_cycle;Signal;HPM_P1;HPM_P2
2022/03/25 00:02:15;;;;;;;96.22;56.03;;;6.80;99.90;;;;;;5050348;28;20488;-47
2022/03/25 00:04:41;;;;;;;96.10;57.50;;;6.80;99.90;;;;;;5049975;28;20369;-51
2022/03/25 00:07:07;;;;;;;101.22;58.28;;;6.70;99.90;;;;;;5052087;28;20117;-47
2022/03/25 00:09:33;;;;;;;98.72;57.80;;;6.70;99.90;;;;;;5051984;28;20488;-48
2022/03/25 00:11:59;;;;;;;97.82;56.17;;;6.70;99.90;;;;;;5050729;28;20048;-48
2022/03/25 00:14:25;;;;;;;108.80;60.05;;;6.80;99.90;;;;;;5051720;28;20044;-49
2022/03/25 00:16:51;;;;;;;107.88;60.75;;;6.70;99.90;;;;;;5050631;28;20044;-46
2022/03/25 00:19:17;;;;;;;113.13;60.63;;;6.50;99.90;;;;;;5051294;28;20044;-49
2022/03/25 00:21:43;;;;;;;114.25;60.90;;;6.60;99.90;;;;;;5050063;28;20041;-49
2022/03/25 00:24:09;;;;;;;108.32;60.97;;;6.60;99.90;;;;;;5051560;28;20112;-48
2022/03/25 00:26:35;;;;;;;105.20;61.03;;;6.70;99.90;;;;;;5050219;28;20124;-50
2022/03/25 00:29:01;;;;;;;108.63;59.53;;;6.40;99.90;;;;;;5050569;28;20033;-52
2022/03/25 00:31:27;;;;;;;105.68;60.67;;;6.40;99.90;;;;;;5051708;28;20041;-52
2022/03/25 00:33:53;;;;;;;108.43;60.03;;;6.50;99.90;;;;;;5051878;28;20037;-50
2022/03/25 00:36:21;;;;;;;107.60;59.80;;;6.40;99.90;;;;;;5051448;28;20150;-50
2022/03/25 00:38:47;;;;;;;105.13;59.20;;;6.30;99.90;;;;;;5051272;28;20051;-47
2022/03/25 00:41:13;;;;;;;106.03;59.67;;;6.30;99.90;;;;;;5049704;28;20155;-47
2022/03/25 00:43:42;;;;;;;105.80;62.10;;;6.30;99.90;;;;;;5048546;28;20099;-48
2022/03/25 00:46:09;;;;;;;111.22;58.63;;;6.20;99.90;;;;;;5051541;28;20068;-51
2022/03/25 00:48:34;;;;;;;103.38;59.47;;;6.10;99.90;;;;;;5051354;28;20122;-50
2022/03/25 00:51:00;;;;;;;103.78;60.42;;;6.10;99.90;;;;;;5051253;28;20068;-50
2022/03/25 00:53:26;;;;;;;98.97;58.30;;;5.90;99.90;;;;;;5048213;28;20037;-47
2022/03/25 00:55:52;;;;;;;100.40;58.38;;;5.80;99.90;;;;;;5051127;28;20049;-50
2022/03/25 00:58:19;;;;;;;100.63;56.60;;;5.80;99.90;;;;;;5050775;28;20045;-48
2022/03/25 01:00:45;;;;;;;104.32;58.88;;;5.60;99.90;;;;;;5051165;28;20037;-48
2022/03/25 01:03:11;;;;;;;99.63;58.70;;;5.60;99.90;;;;;;5050940;28;20486;-46
2022/03/25 01:05:37;;;;;;;99.78;57.45;;;5.60;99.90;;;;;;5051350;28;20032;-51
2022/03/25 01:08:04;;;;;;;98.40;57.58;;;5.60;99.90;;;;;;5049656;28;20048;-46
2022/03/25 01:10:31;;;;;;;99.57;57.63;;;5.50;99.90;;;;;;5050786;28;20041;-52
2022/03/25 01:12:57;;;;;;;100.75;59.10;;;5.50;99.90;;;;;;5049016;28;20492;-46
2022/03/25 01:15:23;;;;;;;102.68;59.90;;;5.40;99.90;;;;;;5050729;28;20045;-52
2022/03/25 01:17:49;;;;;;;100.78;56.97;;;5.30;99.90;;;;;;5050958;28;20040;-47
2022/03/25 01:20:17;;;;;;;103.88;59.08;;;5.30;99.90;;;;;;5050733;28;20036;-49
2022/03/25 01:22:43;;;;;;;98.53;57.35;;;5.30;99.90;;;;;;5049901;28;20091;-49
2022/03/25 01:25:09;;;;;;;105.63;58.55;;;5.20;99.90;;;;;;5051169;28;20188;-47
2022/03/25 01:27:35;;;;;;;97.55;57.47;;;5.20;99.90;;;;;;5050677;28;20063;-48
2022/03/25 01:30:01;;;;;;;103.72;60.10;;;5.20;99.90;;;;;;5055291;28;20037;-47
2022/03/25 01:32:27;;;;;;;116.38;62.55;;;5.20;99.90;;;;;;5055194;28;20400;-44
2022/03/25 01:34:53;;;;;;;113.20;61.55;;;5.20;99.90;;;;;;5055223;28;20044;-49
2022/03/25 01:37:18;;;;;;;107.40;61.28;;;5.20;99.90;;;;;;5053481;28;20076;-50
2022/03/25 01:39:44;;;;;;;108.53;62.13;;;5.20;99.90;;;;;;5055042;28;20041;-46
2022/03/25 01:42:10;;;;;;;114.75;63.65;;;5.10;99.90;;;;;;5054200;28;20041;-47
2022/03/25 01:44:37;;;;;;;114.05;65.00;;;5.00;99.90;;;;;;5054562;28;20036;-44
2022/03/25 01:47:03;;;;;;;120.75;62.10;;;5.00;99.90;;;;;;5053070;28;20056;-47
2022/03/25 01:49:29;;;;;;;114.45;62.20;;;5.10;99.90;;;;;;5054719;28;20452;-45
2022/03/25 01:52:00;;;;;;;108.85;62.70;;;4.90;99.90;;;;;;5054510;28;20048;-45
2022/03/25 01:54:30;;;;;;;111.28;61.00;;;5.00;99.90;;;;;;5053315;28;20045;-46
2022/03/25 01:57:03;;;;;;;111.07;61.08;;;4.90;99.90;;;;;;5054238;28;20454;-49
2022/03/25 01:59:29;;;;;;;112.93;61.95;;;4.90;99.90;;;;;;5054257;28;20055;-47
2022/03/25 02:01:56;;;;;;;107.82;61.50;;;4.90;99.90;;;;;;5054501;28;20049;-50
2022/03/25 02:04:23;;;;;;;109.35;60.47;;;5.00;99.90;;;;;;5053227;28;20033;-48
2022/03/25 02:06:49;;;;;;;102.80;59.72;;;4.90;99.90;;;;;;5053657;28;20097;-48
2022/03/25 02:09:15;;;;;;;106.07;59.55;;;4.80;99.90;;;;;;5054281;28;20037;-48
2022/03/25 02:11:42;;;;;;;107.97;60.97;;;4.80;99.90;;;;;;5054031;28;20043;-50
2022/03/25 02:14:08;;;;;;;106.97;60.47;;;4.80;99.90;;;;;;5054282;28;20064;-48
2022/03/25 02:16:42;;;;;;;105.70;61.47;;;4.80;99.90;;;;;;5052094;28;20111;-52
2022/03/25 02:19:10;;;;;;;113.85;63.33;;;4.60;99.90;;;;;;5054383;28;20033;-49
2022/03/25 02:21:41;;;;;;;115.65;62.20;;;4.80;99.90;;;;;;5053251;28;20116;-46
2022/03/25 02:24:08;;;;;;;115.47;61.65;;;4.70;99.90;;;;;;5052675;28;20428;-47
2022/03/25 02:26:35;;;;;;;105.97;59.97;;;4.70;99.90;;;;;;5053725;28;20524;-46
2022/03/25 02:29:03;;;;;;;101.35;58.83;;;4.50;99.90;;;;;;5052566;28;20025;-46
2022/03/25 02:31:28;;;;;;;98.47;56.60;;;4.50;99.90;;;;;;5053715;28;20099;-48
2022/03/25 02:33:58;;;;;;;98.00;56.10;;;4.40;99.90;;;;;;5052928;28;20369;-48
2022/03/25 02:36:23;;;;;;;98.68;54.97;;;4.20;99.90;;;;;;5052756;28;20051;-49
2022/03/25 02:38:49;;;;;;;97.25;54.45;;;4.30;99.90;;;;;;5050884;28;20048;-47
2022/03/25 02:41:15;;;;;;;94.03;53.38;;;4.10;99.90;;;;;;5051979;28;20099;-44
2022/03/25 02:43:40;;;;;;;90.60;53.03;;;4.10;99.90;;;;;;5053794;28;20036;-46
2022/03/25 02:46:06;;;;;;;91.75;52.08;;;4.00;99.90;;;;;;5053595;28;20065;-48
2022/03/25 02:48:33;;;;;;;86.63;51.30;;;4.10;99.90;;;;;;5053404;28;20607;-46
2022/03/25 02:50:59;;;;;;;84.70;49.78;;;4.10;99.90;;;;;;5053499;28;20044;-50
2022/03/25 02:53:25;;;;;;;91.88;49.65;;;3.80;99.90;;;;;;5053210;28;20048;-50
2022/03/25 02:55:51;;;;;;;147.85;49.15;;;3.90;99.90;;;;;;5050721;28;20053;-50
2022/03/25 02:58:17;;;;;;;92.05;46.90;;;3.80;99.90;;;;;;5053354;28;20048;-47
2022/03/25 03:00:43;;;;;;;122.22;47.63;;;3.70;99.90;;;;;;5052470;28;20040;-47
2022/03/25 03:03:09;;;;;;;79.88;42.65;;;3.70;99.90;;;;;;5052391;28;20041;-47
2022/03/25 03:05:35;;;;;;;81.57;44.60;;;3.70;99.90;;;;;;5053337;28;20118;-46
2022/03/25 03:08:00;;;;;;;66.90;43.33;;;3.60;99.90;;;;;;5053404;28;20090;-46
2022/03/25 03:10:27;;;;;;;64.38;41.70;;;3.60;99.90;;;;;;5053233;28;20086;-46
2022/03/25 03:12:53;;;;;;;105.68;41.38;;;3.40;99.90;;;;;;5052789;28;20187;-47
2022/03/25 03:15:21;;;;;;;65.25;38.80;;;3.30;99.90;;;;;;5050788;28;20090;-46
2022/03/25 03:17:48;;;;;;;78.35;41.05;;;3.30;99.90;;;;;;5053432;28;20490;-46
2022/03/25 03:20:15;;;;;;;77.18;39.75;;;3.20;99.90;;;;;;5051885;28;20029;-49
2022/03/25 03:22:41;;;;;;;66.82;36.88;;;3.00;99.90;;;;;;5052395;28;20493;-49
2022/03/25 03:25:08;;;;;;;68.00;39.22;;;3.10;99.90;;;;;;5053073;28;20072;-48
2022/03/25 03:27:33;;;;;;;58.65;37.53;;;3.10;99.90;;;;;;5052762;28;20404;-47
2022/03/25 03:29:59;;;;;;;63.33;38.40;;;3.00;99.90;;;;;;5053030;28;20039;-48
2022/03/25 03:32:26;;;;;;;61.20;39.40;;;3.10;99.90;;;;;;5053160;28;20052;-51
2022/03/25 03:34:55;;;;;;;62.67;39.03;;;3.10;99.90;;;;;;5052768;28;20041;-51
2022/03/25 03:37:22;;;;;;;64.60;38.85;;;3.10;99.90;;;;;;5052538;28;20040;-45
2022/03/25 03:39:48;;;;;;;64.68;40.10;;;3.20;99.90;;;;;;5052668;28;20041;-50
2022/03/25 03:42:14;;;;;;;67.57;39.58;;;3.20;99.90;;;;;;5052316;28;20048;-49
2022/03/25 03:44:41;;;;;;;67.38;39.80;;;3.20;99.90;;;;;;5050255;28;20041;-49
2022/03/25 03:47:08;;;;;;;65.90;39.55;;;3.30;99.90;;;;;;5052615;28;20112;-47
2022/03/25 03:49:35;;;;;;;68.40;41.88;;;3.20;99.90;;;;;;5051705;28;20108;-50
2022/03/25 03:52:02;;;;;;;67.35;41.35;;;3.30;99.90;;;;;;5051880;28;20052;-50
2022/03/25 03:54:28;;;;;;;71.30;42.63;;;3.40;99.90;;;;;;5052502;28;20499;-47
2022/03/25 03:56:53;;;;;;;64.72;40.85;;;3.40;99.90;;;;;;5050923;28;20056;-45
2022/03/25 03:59:19;;;;;;;66.05;40.92;;;3.40;99.90;;;;;;5051897;28;20066;-46
2022/03/25 04:01:45;;;;;;;63.95;39.67;;;3.40;99.90;;;;;;5050773;28;20476;-52
2022/03/25 04:04:11;;;;;;;69.45;40.13;;;3.30;99.90;;;;;;5051027;28;20049;-48
2022/03/25 04:06:37;;;;;;;68.75;40.97;;;3.10;99.90;;;;;;5052118;28;20033;-49
2022/03/25 04:09:03;;;;;;;65.28;39.92;;;3.20;99.90;;;;;;5052253;28;20047;-47
2022/03/25 04:11:29;;;;;;;63.47;38.65;;;3.20;99.90;;;;;;5052118;28;20127;-50
2022/03/25 04:13:54;;;;;;;62.80;39.80;;;3.00;99.90;;;;;;5052230;28;20491;-46
2022/03/25 04:16:22;;;;;;;61.58;38.38;;;2.90;99.90;;;;;;5050755;28;20130;-47
2022/03/25 04:18:48;;;;;;;62.17;37.85;;;3.00;99.90;;;;;;5052181;28;20068;-50
2022/03/25 04:21:14;;;;;;;59.33;38.15;;;2.80;99.90;;;;;;5051703;28;20037;-52
2022/03/25 04:23:39;;;;;;;63.65;39.33;;;2.80;99.90;;;;;;5051019;28;20374;-46
2022/03/25 04:26:05;;;;;;;70.00;40.40;;;2.90;99.90;;;;;;5050255;28;20065;-50
2022/03/25 04:28:31;;;;;;;63.28;38.60;;;2.80;99.90;;;;;;5051693;28;20056;-48
2022/03/25 04:30:57;;;;;;;65.97;40.38;;;2.50;99.90;;;;;;5051516;28;20118;-47
2022/03/25 04:33:22;;;;;;;65.32;38.03;;;2.70;99.90;;;;;;5052109;28;20124;-49
2022/03/25 04:35:48;;;;;;;65.40;39.75;;;2.70;99.90;;;;;;5051658;28;20045;-48
2022/03/25 04:38:15;;;;;;;66.97;40.35;;;2.60;99.90;;;;;;5050459;28;20528;-47
2022/03/25 04:40:41;;;;;;;64.20;38.70;;;2.40;99.90;;;;;;5051776;28;20095;-50
2022/03/25 04:43:07;;;;;;;69.00;40.58;;;2.50;99.90;;;;;;5050369;28;20049;-49
2022/03/25 04:45:33;;;;;;;65.60;39.10;;;2.40;99.90;;;;;;5051129;28;20029;-48
2022/03/25 04:47:59;;;;;;;65.88;40.28;;;2.40;99.90;;;;;;5051309;28;20033;-50
2022/03/25 04:50:25;;;;;;;69.07;41.50;;;2.20;99.90;;;;;;5051099;28;20090;-49
2022/03/25 04:52:52;;;;;;;74.50;41.90;;;2.30;99.90;;;;;;5051232;28;20116;-46
2022/03/25 04:55:18;;;;;;;71.05;40.67;;;2.50;99.90;;;;;;5050797;28;20049;-49
2022/03/25 04:57:45;;;;;;;72.97;42.53;;;2.30;99.90;;;;;;5050985;28;20504;-48
2022/03/25 05:00:11;;;;;;;77.70;42.10;;;2.40;99.90;;;;;;5049609;28;20112;-48
2022/03/25 05:02:37;;;;;;;72.55;41.92;;;2.70;99.90;;;;;;5050215;28;20033;-47
2022/03/25 05:05:03;;;;;;;77.05;43.10;;;2.70;99.90;;;;;;5050709;28;20120;-48
2022/03/25 05:07:29;;;;;;;79.75;44.03;;;2.70;99.90;;;;;;5051088;28;20041;-45
2022/03/25 05:09:59;;;;;;;78.45;43.10;;;2.80;99.90;;;;;;5049279;28;20055;-48
2022/03/25 05:12:26;;;;;;;72.85;40.78;;;2.70;99.90;;;;;;5051102;28;20113;-49
2022/03/25 05:14:52;;;;;;;70.97;40.55;;;2.50;99.90;;;;;;5051150;28;20045;-46
2022/03/25 05:17:17;;;;;;;70.95;40.13;;;2.50;99.90;;;;;;5051050;28;20124;-48
2022/03/25 05:19:43;;;;;;;66.95;39.10;;;2.50;99.90;;;;;;5050998;28;20113;-47
2022/03/25 05:22:09;;;;;;;62.60;36.88;;;2.40;99.90;;;;;;5049555;28;20076;-46
2022/03/25 05:24:35;;;;;;;61.63;35.00;;;2.20;99.90;;;;;;5051193;28;20044;-47
2022/03/25 05:27:01;;;;;;;74.13;35.35;;;2.10;99.90;;;;;;5050971;28;20388;-49
2022/03/25 05:29:28;;;;;;;92.80;36.45;;;1.80;99.90;;;;;;5050801;28;20044;-46
2022/03/25 05:31:54;;;;;;;86.13;37.70;;;1.90;99.90;;;;;;5049463;28;20049;-48
2022/03/25 05:34:20;;;;;;;64.53;36.15;;;1.80;99.90;;;;;;5049704;28;20064;-46
2022/03/25 05:36:46;;;;;;;103.35;36.42;;;1.80;99.90;;;;;;5050066;28;20041;-48
2022/03/25 05:39:14;;;;;;;67.18;37.25;;;1.80;99.90;;;;;;5050577;28;20048;-51
2022/03/25 05:41:41;;;;;;;146.88;39.72;;;1.70;99.90;;;;;;5050559;28;20052;-48
2022/03/25 05:44:07;;;;;;;94.47;39.33;;;1.50;99.90;;;;;;5050181;28;20037;-49
2022/03/25 05:46:34;;;;;;;118.95;39.40;;;1.70;99.90;;;;;;5050448;28;20666;-49
2022/03/25 05:48:59;;;;;;;86.53;38.03;;;1.30;99.90;;;;;;5049358;28;20090;-47
2022/03/25 05:51:25;;;;;;;83.50;38.90;;;1.60;99.90;;;;;;5048097;28;20045;-48
2022/03/25 05:53:51;;;;;;;65.97;36.83;;;1.60;99.90;;;;;;5047925;28;20045;-47
2022/03/25 05:56:16;;;;;;;87.40;38.42;;;1.70;99.90;;;;;;5048893;28;20464;-50
2022/03/25 05:58:42;;;;;;;273.95;41.35;;;1.50;99.90;;;;;;5050390;28;20401;-47
2022/03/25 06:01:08;;;;;;;116.63;36.60;;;1.70;99.90;;;;;;5049434;28;20404;-49
2022/03/25 06:03:33;;;;;;;87.22;37.80;;;1.40;99.90;;;;;;5049034;28;20131;-50
2022/03/25 06:06:03;;;;;;;72.72;37.55;;;1.40;99.90;;;;;;5049960;28;20049;-48
2022/03/25 06:08:30;;;;;;;66.28;37.47;;;1.60;99.90;;;;;;5042934;28;20587;-51
2022/03/25 06:10:56;;;;;;;69.53;36.83;;;1.70;99.90;;;;;;5041560;28;20037;-48
2022/03/25 06:13:22;;;;;;;71.63;36.47;;;1.50;99.90;;;;;;5041173;28;20033;-47
2022/03/25 06:15:48;;;;;;;70.65;36.80;;;1.70;99.90;;;;;;5045619;28;21433;-52
2022/03/25 06:18:14;;;;;;;73.30;37.40;;;1.70;99.90;;;;;;5046179;28;20041;-49
2022/03/25 06:20:40;;;;;;;65.53;36.58;;;1.60;99.90;;;;;;5046179;28;20595;-48
2022/03/25 06:23:05;;;;;;;61.55;36.38;;;1.60;99.90;;;;;;5048675;28;20051;-53
2022/03/25 06:25:32;;;;;;;70.78;37.47;;;2.00;99.90;;;;;;5048972;28;20043;-47
2022/03/25 06:28:00;;;;;;;63.35;37.30;;;1.80;99.90;;;;;;5050114;28;20467;-48
2022/03/25 06:30:34;;;;;;;63.17;36.45;;;1.90;99.90;;;;;;5050758;28;20036;-46
2022/03/25 06:33:02;;;;;;;57.85;35.75;;;2.10;99.90;;;;;;5051850;28;20084;-48
2022/03/25 06:35:28;;;;;;;54.50;34.85;;;2.10;99.90;;;;;;5051737;28;20039;-51
2022/03/25 06:37:55;;;;;;;59.75;35.88;;;2.10;99.90;;;;;;5053722;28;20095;-47
2022/03/25 06:40:21;;;;;;;55.97;36.20;;;2.20;99.90;;;;;;5053565;28;20076;-47
2022/03/25 06:42:48;;;;;;;56.53;35.60;;;2.20;99.90;;;;;;5053557;28;20037;-47
2022/03/25 06:45:15;;;;;;;53.13;34.05;;;2.30;99.90;;;;;;5052120;28;20033;-46
2022/03/25 06:47:41;;;;;;;51.85;34.20;;;2.40;99.90;;;;;;5052135;28;20033;-49
2022/03/25 06:50:10;;;;;;;52.45;34.05;;;2.30;99.90;;;;;;5053385;28;20373;-47
2022/03/25 06:52:36;;;;;;;53.08;33.45;;;2.30;99.90;;;;;;5051547;28;20471;-49
2022/03/25 06:55:03;;;;;;;57.85;36.72;;;2.20;99.90;;;;;;5053348;28;20040;-48
2022/03/25 06:57:29;;;;;;;60.97;36.47;;;2.40;99.90;;;;;;5052808;28;20053;-47
2022/03/25 06:59:55;;;;;;;66.55;37.72;;;2.20;99.90;;;;;;5052754;28;20037;-45
2022/03/25 07:02:21;;;;;;;70.57;39.63;;;2.50;99.90;;;;;;5050926;28;20048;-48
2022/03/25 07:04:47;;;;;;;70.68;40.22;;;2.70;99.90;;;;;;5053271;28;20728;-47
2022/03/25 07:07:13;;;;;;;83.93;42.90;;;2.90;99.90;;;;;;5053142;28;20033;-49
2022/03/25 07:09:39;;;;;;;79.13;43.67;;;3.10;99.90;;;;;;5053046;28;20466;-46
2022/03/25 07:12:06;;;;;;;80.72;44.58;;;3.20;99.90;;;;;;5053231;28;20106;-49
2022/03/25 07:14:32;;;;;;;87.13;44.55;;;3.20;99.90;;;;;;5035191;28;20126;-47
2022/03/25 07:16:58;;;;;;;97.63;47.97;;;3.60;99.90;;;;;;5052909;28;20076;-50
2022/03/25 07:19:25;;;;;;;92.55;49.97;;;3.80;99.90;;;;;;5053053;28;20130;-49
2022/03/25 07:21:52;;;;;;;97.10;48.92;;;4.00;99.90;;;;;;5052929;28;20415;-49
2022/03/25 07:24:18;;;;;;;93.03;47.85;;;4.00;99.90;;;;;;5050551;28;20120;-46
2022/03/25 07:26:43;;;;;;;98.25;49.45;;;3.80;99.90;;;;;;5052355;28;20128;-48
2022/03/25 07:29:11;;;;;;;90.95;48.95;;;4.30;99.90;;;;;;5052844;28;20040;-46
2022/03/25 07:31:37;;;;;;;93.72;48.10;;;4.40;99.90;;;;;;5052392;28;20045;-47
2022/03/25 07:34:03;;;;;;;93.18;46.03;;;4.20;99.90;;;;;;5052633;28;20047;-46
2022/03/25 07:36:29;;;;;;;89.20;47.45;;;4.50;99.90;;;;;;5052801;28;20033;-49
2022/03/25 07:38:55;;;;;;;84.85;45.63;;;4.50;99.90;;;;;;5052413;28;20052;-49
2022/03/25 07:41:21;;;;;;;84.40;45.45;;;4.60;99.90;;;;;;5052664;28;20041;-47
2022/03/25 07:43:47;;;;;;;84.25;44.70;;;4.60;99.90;;;;;;5052594;28;20033;-47
2022/03/25 07:46:13;;;;;;;77.70;43.47;;;4.90;99.90;;;;;;5052727;28;20036;-48
2022/03/25 07:48:39;;;;;;;80.85;43.13;;;5.00;99.90;;;;;;5052509;28;20611;-46
2022/03/25 07:51:05;;;;;;;77.30;41.10;;;4.90;99.90;;;;;;5052198;28;20064;-48
2022/03/25 07:53:32;;;;;;;72.32;40.40;;;5.20;99.90;;;;;;5051998;28;20029;-48
2022/03/25 07:55:59;;;;;;;78.00;40.70;;;5.20;99.90;;;;;;5052257;28;20060;-49
2022/03/25 07:58:25;;;;;;;77.93;41.75;;;5.20;99.90;;;;;;5052346;28;20396;-51
2022/03/25 08:00:51;;;;;;;71.82;39.72;;;5.30;99.90;;;;;;5052363;28;20041;-49
2022/03/25 08:03:18;;;;;;;75.30;41.72;;;5.60;99.90;;;;;;5052214;28;20056;-51
2022/03/25 08:05:45;;;;;;;68.03;38.72;;;6.00;99.90;;;;;;5052019;28;20430;-50
2022/03/25 08:08:11;;;;;;;73.70;39.20;;;6.10;99.90;;;;;;5052048;28;20041;-53
2022/03/25 08:10:41;;;;;;;63.95;37.10;;;6.20;99.90;;;;;;5051670;28;20496;-46
2022/03/25 08:13:07;;;;;;;67.50;37.97;;;6.20;99.90;;;;;;5052032;28;20443;-48
2022/03/25 08:15:34;;;;;;;63.72;36.08;;;6.40;99.90;;;;;;5051560;28;20037;-46
2022/03/25 08:18:05;;;;;;;63.00;35.63;;;6.40;99.90;;;;;;5051606;28;20036;-47
2022/03/25 08:20:35;;;;;;;62.80;35.80;;;6.60;99.90;;;;;;5051731;28;20391;-47
2022/03/25 08:23:02;;;;;;;63.83;35.83;;;6.70;99.90;;;;;;5051387;28;20080;-44
2022/03/25 08:28:13;;;;;;;;;;;6.90;99.90;;;;;;5052235;28;20041;-49
2022/03/25 08:30:40;;;;;;;62.25;33.95;;;7.00;99.90;;;;;;5051217;28;19924;-47
2022/03/25 08:33:06;;;;;;;63.97;36.08;;;7.10;99.90;;;;;;5051680;28;20476;-49
2022/03/25 08:35:32;;;;;;;60.80;33.95;;;7.40;99.90;;;;;;5048737;28;20033;-46
2022/03/25 08:37:58;;;;;;;58.60;33.60;;;7.60;99.90;;;;;;5049553;28;20465;-48
2022/03/25 08:40:26;;;;;;;59.90;33.60;;;7.70;99.90;;;;;;5048439;28;20122;-48
2022/03/25 08:42:52;;;;;;;52.60;30.95;;;7.70;99.90;;;;;;5051538;28;20041;-49
2022/03/25 08:45:18;;;;;;;57.47;33.08;;;7.70;99.90;;;;;;5049771;28;20135;-51
2022/03/25 08:47:45;;;;;;;57.78;32.08;;;8.00;99.90;;;;;;5051473;28;20116;-49
2022/03/25 08:50:13;;;;;;;53.05;30.35;;;8.00;99.90;;;;;;5049290;28;20033;-51
2022/03/25 08:52:42;;;;;;;56.05;31.95;;;8.00;99.90;;;;;;5050977;28;20468;-50
2022/03/25 08:55:09;;;;;;;53.25;30.30;;;8.40;99.90;;;;;;5051238;28;20029;-50
2022/03/25 08:57:36;;;;;;;51.10;29.35;;;8.30;99.90;;;;;;5066320;28;20543;-48
2022/03/25 09:00:10;;;;;;;53.75;29.08;;;8.40;99.90;;;;;;5051248;28;20239;-49
2022/03/25 09:02:36;;;;;;;53.40;28.67;;;8.60;99.90;;;;;;5051111;28;20489;-49
2022/03/25 09:05:03;;;;;;;50.75;27.58;;;9.10;99.90;;;;;;5050877;28;20119;-48
2022/03/25 09:07:29;;;;;;;49.55;28.55;;;9.30;99.90;;;;;;5051153;28;20108;-45
2022/03/25 09:09:55;;;;;;;50.15;27.45;;;9.20;99.90;;;;;;5050798;28;20045;-48
2022/03/25 09:12:21;;;;;;;47.80;27.67;;;9.40;99.90;;;;;;5050760;28;20037;-50
2022/03/25 09:14:46;;;;;;;50.00;29.02;;;9.60;99.90;;;;;;5051068;28;20052;-47
2022/03/25 09:17:12;;;;;;;52.55;28.00;;;9.60;99.90;;;;;;5051012;28;20094;-50
2022/03/25 09:19:38;;;;;;;47.28;27.50;;;9.70;99.90;;;;;;5050548;28;20388;-50
2022/03/25 09:22:04;;;;;;;50.67;27.83;;;9.90;99.90;;;;;;5051014;28;20041;-47
2022/03/25 09:24:30;;;;;;;50.35;27.25;;;10.00;99.90;;;;;;5050335;28;20041;-49
2022/03/25 09:26:55;;;;;;;51.45;26.48;;;10.00;99.90;;;;;;5050996;28;20044;-46
2022/03/25 09:29:21;;;;;;;48.83;26.90;;;10.30;99.90;;;;;;5051107;28;20040;-46
2022/03/25 09:31:47;;;;;;;49.30;27.65;;;10.40;99.90;;;;;;5051179;28;20040;-49
2022/03/25 09:36:57;;;;;;;48.88;26.58;;;10.70;99.90;;;;;;5050975;28;20170;-49
2022/03/25 09:39:23;;;;;;;46.92;25.40;;;10.90;99.90;;;;;;5050052;28;20076;-50
2022/03/25 09:41:50;;;;;;;44.05;25.55;;;11.30;99.90;;;;;;5050620;28;20060;-48
2022/03/25 09:44:17;;;;;;;48.40;25.52;;;11.20;99.90;;;;;;5049936;28;20041;-51
2022/03/25 09:46:43;;;;;;;43.05;22.70;;;11.40;99.90;;;;;;5050483;28;20447;-50
2022/03/25 09:49:12;;;;;;;44.53;23.30;;;11.30;99.90;;;;;;5052707;28;20044;-47
2022/03/25 09:51:40;;;;;;;45.58;22.75;;;11.70;99.90;;;;;;5054378;28;20044;-51
2022/03/25 09:54:08;;;;;;;45.83;24.98;;;11.50;99.90;;;;;;5053077;28;20392;-49
2022/03/25 09:56:34;;;;;;;47.10;24.50;;;11.30;99.90;;;;;;5052795;28;20060;-48
2022/03/25 09:59:00;;;;;;;44.83;26.20;;;11.40;99.90;;;;;;5054423;28;20044;-49
2022/03/25 10:01:26;;;;;;;45.50;25.35;;;11.50;99.90;;;;;;5054127;28;20437;-53
2022/03/25 10:03:52;;;;;;;46.70;26.80;;;11.70;99.90;;;;;;5054356;28;20075;-48
2022/03/25 10:06:18;;;;;;;43.60;24.98;;;11.90;99.90;;;;;;5053658;28;20071;-48
2022/03/25 10:08:45;;;;;;;42.55;24.98;;;12.00;99.90;;;;;;5054430;28;20472;-48
2022/03/25 10:11:18;;;;;;;45.65;25.45;;;12.00;99.90;;;;;;5052788;28;20068;-48
2022/03/25 10:13:44;;;;;;;46.50;24.80;;;12.10;99.90;;;;;;5054328;28;20488;-50
2022/03/25 10:16:27;;;;;;;45.83;25.23;;;12.10;99.90;;;;;;5051320;28;20091;-48
2022/03/25 10:18:54;;;;;;;43.90;24.75;;;12.50;99.90;;;;;;5052886;28;20376;-50
2022/03/25 10:21:19;;;;;;;45.75;24.30;;;12.80;99.90;;;;;;5053521;28;20481;-47
2022/03/25 10:23:45;;;;;;;45.00;24.83;;;12.90;99.90;;;;;;5053247;28;20039;-49
2022/03/25 10:26:11;;;;;;;46.30;26.40;;;12.80;99.90;;;;;;5053195;28;20044;-49
2022/03/25 10:28:42;;;;;;;45.78;25.52;;;13.00;99.90;;;;;;5053985;28;20037;-50
2022/03/25 10:31:18;;;;;;;46.53;26.02;;;12.80;99.90;;;;;;5052482;28;20073;-49
2022/03/25 10:33:54;;;;;;;44.97;25.55;;;13.10;99.90;;;;;;5053781;28;20076;-51
2022/03/25 10:36:23;;;;;;;40.65;24.10;;;12.90;99.90;;;;;;5052692;28;20040;-50
2022/03/25 10:39:00;;;;;;;44.53;25.02;;;13.20;99.90;;;;;;5053395;28;20028;-49
2022/03/25 10:41:45;;;;;;;45.60;25.20;;;13.40;99.90;;;;;;5053340;28;20037;-46
2022/03/25 10:44:11;;;;;;;42.00;24.27;;;13.40;99.90;;;;;;5053636;28;20036;-51
2022/03/25 10:46:49;;;;;;;37.50;22.38;;;13.30;99.90;;;;;;5053254;28;20110;-52
2022/03/25 10:49:17;;;;;;;38.20;21.17;;;13.80;99.90;;;;;;5053216;28;20076;-49
2022/03/25 10:51:51;;;;;;;41.63;20.42;;;14.20;99.90;;;;;;5053411;28;20035;-49
2022/03/25 10:54:21;;;;;;;36.47;20.83;;;14.20;99.90;;;;;;5053196;28;20049;-46
2022/03/25 10:56:49;;;;;;;37.95;21.33;;;14.30;99.90;;;;;;5053065;28;20084;-50
2022/03/25 10:59:34;;;;;;;33.30;20.33;;;14.70;99.90;;;;;;5053257;28;20388;-48
2022/03/25 11:02:02;;;;;;;44.55;22.88;;;14.80;98.50;;;;;;5052476;28;20094;-51
2022/03/25 11:04:28;;;;;;;39.97;23.02;;;15.00;99.90;;;;;;5052996;28;20033;-50
2022/03/25 11:06:56;;;;;;;39.53;22.58;;;15.00;99.90;;;;;;5033884;28;20033;-52
2022/03/25 11:09:23;;;;;;;39.30;23.25;;;15.10;99.20;;;;;;5053169;28;20451;-48
2022/03/25 11:11:51;;;;;;;45.13;24.90;;;14.90;99.80;;;;;;5052447;28;20113;-48
2022/03/25 11:14:17;;;;;;;40.60;23.02;;;14.90;99.70;;;;;;5052071;28;20051;-50
2022/03/25 11:16:45;;;;;;;40.80;24.02;;;14.80;99.00;;;;;;5052567;28;20037;-48
2022/03/25 11:19:12;;;;;;;41.67;24.50;;;14.80;98.70;;;;;;5052507;28;20033;-48
2022/03/25 11:21:46;;;;;;;39.88;23.55;;;14.90;99.90;;;;;;5052857;28;20053;-48
2022/03/25 11:24:34;;;;;;;40.75;23.17;;;15.10;99.90;;;;;;5052717;28;20104;-48
2022/03/25 11:27:16;;;;;;;41.35;22.88;;;15.00;98.40;;;;;;5052782;28;20039;-50
2022/03/25 11:29:45;;;;;;;39.47;23.58;;;15.10;99.80;;;;;;5053048;28;20553;-46
2022/03/25 11:32:12;;;;;;;41.13;23.13;;;15.20;99.90;;;;;;5052949;28;20095;-48
2022/03/25 11:34:43;;;;;;;41.72;23.40;;;15.60;99.30;;;;;;5052879;28;20040;-50
2022/03/25 11:37:24;;;;;;;43.55;22.20;;;15.60;97.60;;;;;;5051231;28;20041;-52
2022/03/25 11:40:36;;;;;;;35.22;21.73;;;15.80;98.10;;;;;;5052857;28;20037;-50
2022/03/25 11:43:16;;;;;;;37.75;21.75;;;15.80;97.20;;;;;;5052125;28;20112;-47
2022/03/25 11:46:00;;;;;;;40.05;23.27;;;16.00;98.70;;;;;;5052653;28;20051;-50
2022/03/25 11:48:26;;;;;;;39.60;22.67;;;16.30;98.10;;;;;;5052225;28;20040;-45
2022/03/25 11:50:55;;;;;;;42.92;22.98;;;16.60;98.10;;;;;;5052364;28;20032;-49
2022/03/25 11:53:22;;;;;;;42.78;22.65;;;16.50;95.90;;;;;;5051966;28;20127;-50
2022/03/25 11:56:04;;;;;;;37.65;21.45;;;16.70;96.90;;;;;;5052190;28;20086;-50
2022/03/25 11:58:38;;;;;;;33.47;21.45;;;16.90;96.50;;;;;;5052483;28;20127;-47
2022/03/25 12:01:05;;;;;;;;;;;17.20;94.30;;;;;;5052409;28;20049;-51
2022/03/25 12:03:49;;;;;;;34.92;21.77;;;17.20;93.60;;;;;;5052177;28;19927;-50
2022/03/25 12:06:15;;;;;;;34.15;20.52;;;17.70;95.20;;;;;;5052355;28;20045;-50
2022/03/25 12:09:13;;;;;;;35.13;19.48;;;17.60;92.80;;;;;;5052192;28;20036;-51
2022/03/25 12:11:49;;;;;;;35.55;21.33;;;18.00;93.80;;;;;;5050350;28;20404;-46
2022/03/25 12:14:15;;;;;;;32.22;19.77;;;18.20;92.10;;;;;;5052143;28;20454;-47
2022/03/25 12:16:47;;;;;;;37.90;21.23;;;18.40;94.00;;;;;;5051984;28;20412;-47
2022/03/25 12:19:28;;;;;;;35.15;21.33;;;18.40;89.70;;;;;;5051965;28;20419;-47
2022/03/25 12:21:55;;;;;;;34.95;21.50;;;18.40;91.40;;;;;;5051558;28;20076;-52
2022/03/25 12:24:21;;;;;;;33.03;19.83;;;18.20;90.20;;;;;;5050163;28;20115;-48
2022/03/25 12:27:06;;;;;;;39.28;20.30;;;18.50;91.50;;;;;;5051882;28;20029;-50
2022/03/25 12:29:41;;;;;;;34.53;19.35;;;18.50;88.60;;;;;;5049172;28;20033;-52
2022/03/25 12:32:15;;;;;;;33.33;19.60;;;18.20;89.40;;;;;;5051881;28;20397;-48
2022/03/25 12:34:54;;;;;;;34.90;19.80;;;18.20;85.40;;;;;;5050146;28;20041;-49
2022/03/25 12:37:37;;;;;;;33.78;21.50;;;18.30;86.40;;;;;;5052159;28;20041;-48
2022/03/25 12:40:23;;;;;;;36.17;20.20;;;18.40;83.60;;;;;;5051213;28;20079;-46
2022/03/25 12:42:54;;;;;;;34.47;18.75;;;18.80;86.80;;;;;;5051550;28;20538;-48